createdAt,value
2023-01-07T00:03:18.584Z,10.11
2023-01-07T00:08:20.166Z,10.15
2023-01-07T00:13:21.737Z,10.15
2023-01-07T00:18:23.328Z,10.18
2023-01-07T00:23:25.293Z,10.20
2023-01-07T00:28:26.987Z,10.23
2023-01-07T00:33:28.604Z,10.29
2023-01-07T00:38:30.416Z,10.41
2023-01-07T00:43:32.467Z,10.46
2023-01-07T00:48:33.936Z,10.42
2023-01-07T00:53:35.513Z,10.49
2023-01-07T00:58:37.740Z,10.45
2023-01-07T01:03:40.117Z,10.29
2023-01-07T01:08:46.180Z,10.42
2023-01-07T01:13:47.713Z,10.51
2023-01-07T01:18:49.270Z,10.48
2023-01-07T01:23:50.790Z,10.34
2023-01-07T01:28:52.370Z,10.41
2023-01-07T01:33:54.951Z,10.33
2023-01-07T01:38:56.427Z,10.29
2023-01-07T01:43:58.237Z,10.19
2023-01-07T01:49:23.386Z,10.34
2023-01-07T01:54:25.924Z,10.23
2023-01-07T01:59:31.117Z,10.15
2023-01-07T02:04:34.028Z,10.13
2023-01-07T02:09:35.699Z,10.15
2023-01-07T02:14:45.954Z,10.14
2023-01-07T02:20:07.481Z,10.03
2023-01-07T02:25:23.603Z,9.95
2023-01-07T02:30:37.099Z,9.89
2023-01-07T02:36:03.259Z,9.76
2023-01-07T02:41:14.544Z,9.67
2023-01-07T02:46:23.066Z,9.80
2023-01-07T02:51:32.914Z,9.71
2023-01-07T02:57:11.819Z,9.60
2023-01-07T03:02:42.119Z,9.55
2023-01-07T03:08:20.873Z,9.60
2023-01-07T03:13:34.797Z,9.75
2023-01-07T03:18:42.716Z,9.84
2023-01-07T03:23:50.767Z,9.81
2023-01-07T03:28:54.092Z,9.84
2023-01-07T03:34:04.797Z,9.76
2023-01-07T03:39:09.332Z,9.75
2023-01-07T03:44:10.807Z,9.57
2023-01-07T03:49:12.341Z,9.53
2023-01-07T03:54:13.921Z,9.47
2023-01-07T03:59:15.669Z,9.52
2023-01-07T04:04:17.557Z,9.54
2023-01-07T04:09:19.082Z,9.59
2023-01-07T04:14:20.487Z,9.70
2023-01-07T04:19:22.444Z,9.77
2023-01-07T04:24:24.003Z,9.72
2023-01-07T04:29:25.719Z,9.71
2023-01-07T04:34:27.800Z,9.82
2023-01-07T04:39:29.510Z,9.73
2023-01-07T04:44:31.241Z,9.66
2023-01-07T04:49:32.712Z,9.70
2023-01-07T04:54:34.377Z,9.70
2023-01-07T04:59:35.934Z,9.66
2023-01-07T05:04:37.506Z,9.62
2023-01-07T05:09:39.263Z,9.60
2023-01-07T05:14:40.842Z,9.60
2023-01-07T05:19:42.469Z,9.53
2023-01-07T05:24:44.031Z,9.62
2023-01-07T05:29:45.489Z,9.55
2023-01-07T05:34:47.031Z,9.54
2023-01-07T05:39:48.664Z,9.63
2023-01-07T05:44:50.150Z,9.66
2023-01-07T05:49:51.894Z,9.66
2023-01-07T05:54:53.335Z,9.63
2023-01-07T05:59:54.748Z,9.80
2023-01-07T06:04:56.288Z,9.91
2023-01-07T06:09:57.817Z,10.00
2023-01-07T06:14:59.425Z,9.87
2023-01-07T06:20:01.045Z,9.96
2023-01-07T06:25:03.389Z,9.94
2023-01-07T06:30:05.665Z,9.97
2023-01-07T06:35:09.573Z,9.94
2023-01-07T06:40:12.515Z,9.96
2023-01-07T06:45:13.965Z,10.00
2023-01-07T06:50:16.290Z,10.01
2023-01-07T06:55:18.007Z,10.02
2023-01-07T07:00:19.592Z,10.02
2023-01-07T07:05:21.007Z,10.04
2023-01-07T07:10:22.602Z,10.11
2023-01-07T07:15:24.403Z,10.17
2023-01-07T07:20:25.994Z,10.04
2023-01-07T07:25:27.699Z,10.02
2023-01-07T07:30:46.230Z,10.08
2023-01-07T07:35:49.617Z,10.06
2023-01-07T07:40:51.153Z,10.06
2023-01-07T07:45:52.679Z,10.07
2023-01-07T07:50:54.294Z,10.03
2023-01-07T07:55:55.855Z,10.09
2023-01-07T08:00:57.371Z,10.04
2023-01-07T08:05:58.875Z,10.08
2023-01-07T08:11:00.370Z,10.07
2023-01-07T08:16:01.942Z,10.06
2023-01-07T08:21:03.426Z,10.01
2023-01-07T08:26:05.276Z,10.07
2023-01-07T08:31:08.163Z,10.10
2023-01-07T08:36:22.085Z,10.11
2023-01-07T08:41:24.936Z,10.13
2023-01-07T08:46:26.481Z,10.22
2023-01-07T08:51:28.271Z,10.24
2023-01-07T08:56:29.867Z,10.31
2023-01-07T09:01:31.741Z,10.27
2023-01-07T09:06:33.212Z,10.29
2023-01-07T09:11:35.076Z,10.35
2023-01-07T09:16:36.590Z,10.43
2023-01-07T09:21:38.174Z,10.41
2023-01-07T09:26:42.612Z,10.43
2023-01-07T09:31:44.471Z,10.45
2023-01-07T09:36:46.182Z,10.49
2023-01-07T09:41:53.880Z,10.45
2023-01-07T09:46:57.429Z,10.57
2023-01-07T09:52:07.925Z,10.63
2023-01-07T09:57:16.538Z,10.67
2023-01-07T10:02:50.680Z,10.69
2023-01-07T10:08:30.363Z,10.79
2023-01-07T10:13:57.332Z,10.84
2023-01-07T10:19:03.985Z,10.88
2023-01-07T10:24:16.260Z,10.91
2023-01-07T10:29:29.073Z,10.99
2023-01-07T10:34:36.576Z,11.01
2023-01-07T10:39:51.774Z,11.01
2023-01-07T10:45:09.183Z,11.01
2023-01-07T10:50:44.334Z,11.27
2023-01-07T10:55:56.956Z,11.13
2023-01-07T11:00:59.058Z,11.23
2023-01-07T11:06:08.574Z,11.26
2023-01-07T11:11:16.939Z,11.33
2023-01-07T11:16:24.842Z,11.05
2023-01-07T11:21:42.940Z,11.25
2023-01-07T11:26:46.716Z,11.33
2023-01-07T11:31:52.246Z,11.28
2023-01-07T11:36:54.390Z,11.29
2023-01-07T11:41:57.457Z,11.18
2023-01-07T11:46:59.108Z,11.27
2023-01-07T11:52:00.636Z,11.25
2023-01-07T11:57:16.194Z,11.28
2023-01-07T12:02:26.957Z,11.24
2023-01-07T12:07:28.530Z,11.23
2023-01-07T12:12:30.397Z,11.28
2023-01-07T12:17:34.730Z,11.18
2023-01-07T12:22:48.121Z,11.09
2023-01-07T12:28:04.537Z,11.23
2023-01-07T12:33:25.803Z,11.24
2023-01-07T12:38:43.638Z,11.14
2023-01-07T12:43:53.998Z,11.15
2023-01-07T12:49:07.222Z,11.23
2023-01-07T12:54:17.611Z,11.20
2023-01-07T12:59:45.961Z,11.20
2023-01-07T13:05:08.468Z,11.18
2023-01-07T13:10:19.487Z,11.14
2023-01-07T13:15:27.125Z,11.21
2023-01-07T13:20:41.018Z,11.10
2023-01-07T13:26:18.332Z,11.07
2023-01-07T13:31:25.668Z,11.23
2023-01-07T13:36:45.407Z,11.02
2023-01-07T13:41:57.812Z,11.23
2023-01-07T13:47:03.702Z,11.24
2023-01-07T13:52:23.761Z,11.24
2023-01-07T13:57:31.429Z,11.35
2023-01-07T14:03:02.994Z,11.09
2023-01-07T14:08:04.737Z,11.22
2023-01-07T14:13:38.784Z,11.18
2023-01-07T14:19:24.934Z,11.24
2023-01-07T14:24:42.928Z,11.08
2023-01-07T14:29:49.682Z,11.14
2023-01-07T14:34:56.292Z,11.10
2023-01-07T14:39:57.977Z,11.04
2023-01-07T14:45:01.807Z,11.02
2023-01-07T14:50:21.932Z,10.91
2023-01-07T14:55:33.929Z,10.96
2023-01-07T15:00:57.616Z,10.89
2023-01-07T15:06:23.343Z,10.87
2023-01-07T15:11:26.265Z,10.84
2023-01-07T15:16:30.550Z,10.85
2023-01-07T15:21:38.255Z,10.87
2023-01-07T15:27:02.457Z,10.93
2023-01-07T15:32:18.851Z,10.85
2023-01-07T15:37:20.955Z,10.84
2023-01-07T15:42:24.946Z,10.72
2023-01-07T15:47:36.264Z,10.80
2023-01-07T15:52:37.796Z,10.63
2023-01-07T15:57:39.355Z,10.49
2023-01-07T16:02:43.530Z,10.36
2023-01-07T16:07:48.195Z,10.22
2023-01-07T16:12:52.131Z,10.18
2023-01-07T16:18:23.384Z,10.06
2023-01-07T16:23:27.889Z,9.88
2023-01-07T16:28:38.104Z,9.84
2023-01-07T16:33:42.159Z,9.81
2023-01-07T16:38:46.982Z,9.81
2023-01-07T16:43:48.829Z,9.74
2023-01-07T16:49:09.089Z,9.72
2023-01-07T16:54:31.781Z,9.64
2023-01-07T16:59:43.366Z,9.57
2023-01-07T17:04:46.201Z,9.56
2023-01-07T17:09:48.167Z,9.52
2023-01-07T17:14:50.135Z,9.43
2023-01-07T17:20:11.633Z,9.43
2023-01-07T17:25:15.738Z,9.32
2023-01-07T17:30:20.353Z,9.37
2023-01-07T17:35:24.348Z,9.38
2023-01-07T17:40:25.850Z,9.31
2023-01-07T17:45:27.962Z,9.22
2023-01-07T17:50:36.556Z,9.25
2023-01-07T17:55:38.004Z,9.18
2023-01-07T18:00:39.721Z,9.14
2023-01-07T18:05:41.269Z,9.27
2023-01-07T18:10:44.238Z,9.27
2023-01-07T18:15:45.739Z,9.40
2023-01-07T18:20:47.487Z,9.68
2023-01-07T18:25:51.592Z,9.55
2023-01-07T18:30:53.359Z,9.60
2023-01-07T18:35:54.965Z,9.75
2023-01-07T18:40:56.623Z,9.58
2023-01-07T18:45:58.159Z,9.66
2023-01-07T18:50:59.751Z,9.73
2023-01-07T18:56:01.314Z,9.57
2023-01-07T19:01:05.853Z,9.64
2023-01-07T19:06:10.107Z,9.70
2023-01-07T19:11:14.228Z,9.74
2023-01-07T19:16:15.796Z,9.75
2023-01-07T19:21:17.269Z,9.79
2023-01-07T19:26:19.051Z,9.84
2023-01-07T19:31:20.556Z,9.87
2023-01-07T19:36:22.163Z,9.84
2023-01-07T19:41:23.914Z,9.80
2023-01-07T19:46:26.640Z,9.77
2023-01-07T19:51:28.151Z,9.75
2023-01-07T19:56:29.640Z,9.73
2023-01-07T20:01:31.297Z,9.60
2023-01-07T20:06:35.546Z,9.62
2023-01-07T20:11:38.671Z,9.63
2023-01-07T20:16:41.098Z,9.76
2023-01-07T20:21:42.695Z,9.76
2023-01-07T20:26:44.160Z,9.87
2023-01-07T20:31:45.773Z,9.86
2023-01-07T20:36:47.332Z,9.95
2023-01-07T20:41:48.907Z,10.08
2023-01-07T20:46:50.405Z,10.06
2023-01-07T20:51:52.134Z,10.01
2023-01-07T20:56:53.702Z,10.01
2023-01-07T21:01:55.375Z,10.03
2023-01-07T21:06:57.112Z,9.82
2023-01-07T21:11:58.556Z,9.79
2023-01-07T21:17:00.030Z,9.72
2023-01-07T21:22:01.532Z,9.78
2023-01-07T21:27:03.374Z,9.75
2023-01-07T21:32:05.090Z,9.87
2023-01-07T21:37:06.551Z,9.93
2023-01-07T21:42:08.016Z,10.03
2023-01-07T21:47:09.531Z,10.00
2023-01-07T21:52:11.065Z,9.96
2023-01-07T21:57:12.709Z,9.77
2023-01-07T22:02:14.371Z,9.93
2023-01-07T22:07:18.401Z,9.96
2023-01-07T22:12:19.860Z,9.97
2023-01-07T22:17:21.443Z,9.98
2023-01-07T22:22:22.880Z,9.95
2023-01-07T22:27:24.331Z,10.12
2023-01-07T22:32:25.771Z,10.14
2023-01-07T22:37:27.247Z,10.32
2023-01-07T22:42:38.407Z,10.26
2023-01-07T22:47:43.606Z,10.17
2023-01-07T22:52:45.663Z,9.83
2023-01-07T22:57:47.368Z,10.01
2023-01-07T23:02:48.915Z,9.93
2023-01-07T23:07:50.411Z,9.97
2023-01-07T23:12:51.875Z,9.78
2023-01-07T23:17:54.681Z,9.86
2023-01-07T23:22:56.184Z,10.03
2023-01-07T23:27:57.819Z,10.04
2023-01-07T23:32:59.281Z,9.96
2023-01-07T23:38:00.804Z,9.99
2023-01-07T23:43:03.020Z,9.96
2023-01-07T23:48:04.539Z,9.83
2023-01-07T23:53:06.237Z,9.99
2023-01-07T23:58:07.729Z,9.97
